Time;durP1;ratioP1;P1;durP2;ratioP2;P2;SDS_P1;SDS_P2;PMS_P1;PMS_P2;Temp;Humidity;BMP_temperature;BMP_pressure;BME280_temperature;BME280_humidity;BME280_pressure;Samples;Min_cycle;Max_cycle;Signal;HPM_P1;HPM_P2
2022/04/28 00:00:00;;;;;;;32.25;25.23;;;;;;;11.48;58.61;96112.72;4991537;28;20031;-66
2022/04/28 00:02:26;;;;;;;28.45;23.45;;;;;;;11.31;58.82;96099.88;4990111;28;20041;-66
2022/04/28 00:04:52;;;;;;;27.17;23.33;;;;;;;11.22;58.96;96080.28;4991436;28;20096;-66
2022/04/28 00:07:17;;;;;;;28.75;23.48;;;;;;;11.47;58.70;96108.47;4991273;28;20073;-66
2022/04/28 00:09:42;;;;;;;31.35;24.23;;;;;;;11.24;59.60;96104.75;4991419;28;20509;-66
2022/04/28 00:12:10;;;;;;;28.65;23.63;;;;;;;11.08;60.59;96082.81;4991052;28;20023;-66
2022/04/28 00:14:36;;;;;;;25.75;22.67;;;;;;;11.23;60.09;96099.72;4990964;28;20104;-65
2022/04/28 00:17:02;;;;;;;31.60;24.77;;;;;;;11.08;59.99;96092.69;4989896;28;20030;-66
2022/04/28 00:19:27;;;;;;;31.98;23.95;;;;;;;11.13;60.79;96101.41;4991255;28;20033;-66
2022/04/28 00:21:53;;;;;;;33.55;24.15;;;;;;;11.13;59.45;96090.75;4990885;28;20029;-66
2022/04/28 00:24:18;;;;;;;34.33;25.77;;;;;;;11.21;59.48;96092.00;4991326;28;20027;-66
2022/04/28 00:26:43;;;;;;;39.33;26.02;;;;;;;11.29;58.96;96099.34;5005871;28;20375;-66
2022/04/28 00:29:09;;;;;;;34.13;26.17;;;;;;;11.18;59.00;96089.91;4989997;28;20023;-66
2022/04/28 00:31:34;;;;;;;37.33;27.70;;;;;;;10.96;58.70;96058.47;4990547;28;20023;-66
2022/04/28 00:34:00;;;;;;;40.15;27.88;;;;;;;11.08;58.89;96082.03;4989855;28;20061;-66
2022/04/28 00:36:25;;;;;;;36.53;26.55;;;;;;;11.12;58.62;96094.50;4989706;28;20046;-66
2022/04/28 00:38:50;;;;;;;38.33;27.70;;;;;;;11.13;59.46;96109.38;4990330;28;20653;-66
2022/04/28 00:41:16;;;;;;;38.67;27.35;;;;;;;11.14;59.56;96107.50;4989442;28;20030;-66
2022/04/28 00:43:52;;;;;;;39.63;27.55;;;;;;;11.06;58.49;96097.50;4990080;28;20037;-66
2022/04/28 00:46:18;;;;;;;43.63;27.27;;;;;;;11.06;58.97;96102.84;4989802;28;20498;-66
2022/04/28 00:51:34;;;;;;;42.90;27.95;;;;;;;10.97;58.61;96102.66;4990489;28;20037;-66
2022/04/28 00:54:02;;;;;;;40.50;27.17;;;;;;;10.91;58.64;96101.91;4990963;28;20069;-66
2022/04/28 00:56:28;;;;;;;42.05;27.95;;;;;;;10.96;58.98;96114.38;4990489;28;20309;-66
2022/04/28 00:58:55;;;;;;;41.53;27.65;;;;;;;10.70;59.97;96095.22;4990440;28;20061;-66
2022/04/28 01:01:21;;;;;;;44.47;27.38;;;;;;;10.73;60.25;96099.16;4988906;28;20030;-66
2022/04/28 01:03:47;;;;;;;38.85;26.27;;;;;;;10.73;60.03;96113.25;4989332;28;20018;-65
2022/04/28 01:06:14;;;;;;;43.85;28.98;;;;;;;10.67;60.37;96104.53;4990295;28;20026;-66
2022/04/28 01:08:40;;;;;;;38.08;27.27;;;;;;;10.34;62.31;96097.38;4990649;28;20023;-66
2022/04/28 01:11:06;;;;;;;38.33;27.25;;;;;;;10.44;60.88;96080.53;4990059;28;20034;-66
2022/04/28 01:13:32;;;;;;;41.65;27.92;;;;;;;10.70;61.55;96105.03;4989764;28;20022;-66
2022/04/28 01:15:57;;;;;;;39.58;27.30;;;;;;;10.51;61.13;96079.13;4989810;28;20372;-65
2022/04/28 01:18:23;;;;;;;39.33;27.30;;;;;;;10.24;62.09;96094.81;4994013;28;21596;-65
2022/04/28 01:20:49;;;;;;;43.70;27.63;;;;;;;10.51;61.32;96099.63;4994456;28;20105;-65
2022/04/28 01:23:14;;;;;;;36.50;26.75;;;;;;;10.43;61.38;96084.25;4993470;28;20058;-65
2022/04/28 01:25:40;;;;;;;36.08;25.92;;;;;;;10.38;61.68;96079.78;4994919;28;20023;-65
2022/04/28 01:28:06;;;;;;;36.90;25.90;;;;;;;10.53;61.24;96076.97;4994201;28;20495;-65
2022/04/28 01:30:33;;;;;;;35.03;25.13;;;;;;;10.59;60.26;96086.50;4993703;28;20033;-65
2022/04/28 01:33:00;;;;;;;35.30;24.75;;;;;;;10.56;60.36;96081.75;4994025;28;20121;-65
2022/04/28 01:35:26;;;;;;;36.88;25.17;;;;;;;10.41;60.55;96077.38;4994265;28;20022;-65
2022/04/28 01:37:52;;;;;;;34.95;25.70;;;;;;;10.58;61.02;96094.75;4994417;28;20815;-65
2022/04/28 01:40:18;;;;;;;37.95;26.15;;;;;;;10.46;60.70;96097.00;4992413;28;20019;-65
2022/04/28 01:42:45;;;;;;;30.75;24.02;;;;;;;10.26;61.19;96080.16;4992885;28;20018;-65
2022/04/28 01:45:11;;;;;;;36.40;25.17;;;;;;;10.37;60.62;96096.81;4994108;28;20065;-65
2022/04/28 01:47:36;;;;;;;32.40;24.48;;;;;;;10.45;60.52;96084.78;4991845;28;20045;-65
2022/04/28 01:50:04;;;;;;;38.00;25.83;;;;;;;10.36;60.43;96092.56;4993714;28;20030;-65
2022/04/28 01:55:15;;;;;;;37.97;25.65;;;;;;;10.39;60.15;96095.47;4994089;28;20391;-65
2022/04/28 01:57:40;;;;;;;38.92;25.45;;;;;;;10.12;60.99;96087.94;4994049;28;20026;-65
2022/04/28 02:00:07;;;;;;;31.33;24.17;;;;;;;10.43;59.91;96097.56;4993685;28;20534;-65
2022/04/28 02:02:33;;;;;;;38.33;26.40;;;;;;;10.34;59.75;96087.53;4994004;28;20109;-65
2022/04/28 02:04:59;;;;;;;39.40;26.90;;;;;;;10.33;60.30;96087.78;4992797;28;20064;-66
2022/04/28 02:07:25;;;;;;;37.75;25.98;;;;;;;9.97;59.68;96050.03;4993553;28;20066;-65
2022/04/28 02:09:51;;;;;;;38.95;26.60;;;;;;;10.32;59.83;96110.94;4992224;28;20030;-65
2022/04/28 02:12:16;;;;;;;43.55;27.80;;;;;;;10.28;60.09;96090.50;5008184;28;20065;-65
2022/04/28 02:14:41;;;;;;;49.25;30.00;;;;;;;10.26;59.66;96095.31;4992408;28;20037;-66
2022/04/28 02:17:07;;;;;;;47.42;28.48;;;;;;;10.23;59.33;96099.28;4993302;28;20118;-65
2022/04/28 02:19:34;;;;;;;40.85;27.25;;;;;;;10.17;59.70;96092.41;4993485;28;20087;-65
2022/04/28 02:22:00;;;;;;;47.42;28.40;;;;;;;10.18;59.90;96101.97;4993023;28;20034;-65
2022/04/28 02:24:26;;;;;;;57.30;31.23;;;;;;;10.08;59.59;96089.56;4993585;28;20079;-65
2022/04/28 02:26:51;;;;;;;56.95;30.67;;;;;;;10.09;59.24;96103.66;5023137;23;20046;-62
2022/04/28 02:29:17;;;;;;;45.60;28.83;;;;;;;9.94;59.08;96085.94;5011672;28;20036;-62
2022/04/28 02:31:42;;;;;;;50.33;30.30;;;;;;;9.96;59.50;96091.78;5012164;28;20386;-62
2022/04/28 02:34:07;;;;;;;49.70;30.42;;;;;;;10.05;59.65;96129.19;5012856;28;20026;-62
2022/04/28 02:36:33;;;;;;;66.55;32.90;;;;;;;9.90;59.87;96098.97;5011541;28;20497;-62
2022/04/28 02:38:58;;;;;;;65.57;34.72;;;;;;;9.92;59.64;96113.84;5010476;28;20034;-62
2022/04/28 02:41:24;;;;;;;67.00;33.80;;;;;;;9.96;59.69;96118.34;5010335;28;20120;-62
2022/04/28 02:43:51;;;;;;;60.67;33.10;;;;;;;9.93;59.73;96118.09;5012703;28;20486;-62
2022/04/28 02:46:17;;;;;;;70.80;35.63;;;;;;;9.78;59.81;96092.44;5012378;28;20057;-62
2022/04/28 02:48:42;;;;;;;65.35;33.88;;;;;;;9.57;59.91;96075.78;5012405;28;20030;-62
2022/04/28 02:51:08;;;;;;;50.83;30.33;;;;;;;9.62;59.65;96100.50;5012062;28;20030;-61
2022/04/28 02:53:34;;;;;;;61.95;32.88;;;;;;;9.50;59.89;96070.00;5012210;28;20057;-61
2022/04/28 02:56:00;;;;;;;55.83;32.85;;;;;;;9.76;60.26;96108.63;5012588;28;20026;-62
2022/04/28 02:58:25;;;;;;;52.30;30.77;;;;;;;9.55;60.12;96083.25;5011023;28;20117;-62
2022/04/28 03:00:50;;;;;;;58.42;32.15;;;;;;;9.61;60.21;96098.09;5011831;28;20032;-62
2022/04/28 03:03:16;;;;;;;51.10;31.38;;;;;;;9.68;60.17;96113.75;5011939;28;20380;-62
2022/04/28 03:11:09;;;;;;;56.92;31.50;;;;;;;9.53;60.59;96096.00;5011572;28;20061;-62
2022/04/28 03:13:35;;;;;;;47.17;29.85;;;;;;;9.61;60.14;96116.69;5010601;28;20026;-62
2022/04/28 03:16:01;;;;;;;64.28;33.55;;;;;;;9.63;60.32;96112.69;5010730;28;20459;-62
2022/04/28 03:18:27;;;;;;;57.92;31.63;;;;;;;9.57;60.24;96111.13;5011634;28;20033;-62
2022/04/28 03:20:53;;;;;;;53.13;30.52;;;;;;;9.55;60.50;96112.47;5011514;28;20034;-62
2022/04/28 03:23:19;;;;;;;56.40;32.20;;;;;;;9.40;60.55;96085.97;5011918;28;20025;-62
2022/04/28 03:25:44;;;;;;;56.72;31.33;;;;;;;9.49;60.11;96108.25;5011670;28;20079;-61
2022/04/28 03:28:10;;;;;;;55.42;31.20;;;;;;;9.28;60.33;96078.34;5011784;28;20045;-62
2022/04/28 03:30:35;;;;;;;59.05;32.42;;;;;;;9.56;60.45;96127.31;5009692;28;20030;-62
2022/04/28 03:33:01;;;;;;;59.95;32.72;;;;;;;9.18;60.53;96081.81;5010429;28;20037;-62
2022/04/28 03:35:26;;;;;;;62.55;34.47;;;;;;;9.48;60.66;96125.25;5011660;28;20037;-61
2022/04/28 03:37:52;;;;;;;60.75;32.53;;;;;;;9.31;60.17;96091.84;5010382;28;20036;-61
2022/04/28 03:40:17;;;;;;;65.63;32.35;;;;;;;9.54;60.40;96130.25;5009378;28;20466;-61
2022/04/28 03:42:44;;;;;;;58.63;32.38;;;;;;;9.31;60.04;96093.72;5011565;28;20112;-62
2022/04/28 03:45:10;;;;;;;57.95;30.90;;;;;;;9.35;60.26;96108.81;5011390;28;20034;-62
2022/04/28 03:47:36;;;;;;;58.75;31.88;;;;;;;9.40;60.19;96115.97;5011364;28;20026;-61
2022/04/28 03:50:03;;;;;;;59.03;31.52;;;;;;;9.26;59.74;96107.00;5009726;28;20106;-62
2022/04/28 03:52:29;;;;;;;62.67;32.55;;;;;;;9.30;60.13;96113.38;5011101;28;20026;-62
2022/04/28 03:54:54;;;;;;;65.28;34.03;;;;;;;9.42;60.55;96124.47;5009975;28;20032;-62
2022/04/28 03:57:20;;;;;;;70.93;34.08;;;;;;;9.35;59.79;96122.09;5011314;28;20513;-62
2022/04/28 03:59:45;;;;;;;65.95;33.97;;;;;;;9.35;60.14;96135.38;5010884;28;20030;-61
2022/04/28 04:02:11;;;;;;;59.45;31.80;;;;;;;9.32;60.89;96127.19;5010656;28;20113;-62
2022/04/28 04:04:37;;;;;;;54.42;32.38;;;;;;;9.37;60.77;96135.91;5011124;28;20471;-62
2022/04/28 04:07:03;;;;;;;64.57;34.42;;;;;;;9.45;60.39;96144.38;5011158;28;20014;-61
2022/04/28 04:09:28;;;;;;;58.13;32.22;;;;;;;9.50;60.33;96154.97;5010924;28;20386;-63
2022/04/28 04:11:54;;;;;;;64.03;32.53;;;;;;;9.25;60.51;96113.38;5025796;28;20080;-61
2022/04/28 04:14:19;;;;;;;67.47;32.83;;;;;;;9.36;60.09;96120.22;5010632;28;20021;-62
2022/04/28 04:16:45;;;;;;;54.67;30.17;;;;;;;9.44;60.20;96140.94;5010816;28;20100;-61
2022/04/28 04:19:10;;;;;;;50.42;29.83;;;;;;;9.43;60.31;96115.44;5009387;28;20513;-61
2022/04/28 04:21:35;;;;;;;48.67;30.08;;;;;;;9.55;60.02;96139.81;5010232;28;20443;-62
2022/04/28 04:24:01;;;;;;;61.13;32.08;;;;;;;9.74;60.01;96157.81;5010786;28;20030;-62
2022/04/28 04:26:26;;;;;;;49.20;28.95;;;;;;;9.71;59.79;96145.84;5008939;28;20022;-62
2022/04/28 04:28:51;;;;;;;52.15;31.63;;;;;;;9.82;60.07;96154.56;5010524;28;20482;-63
2022/04/28 04:34:01;;;;;;;43.08;28.55;;;;;;;9.63;59.69;96095.97;5011199;28;20118;-61
2022/04/28 04:36:27;;;;;;;37.47;27.13;;;;;;;10.13;59.96;96157.84;5010575;28;20100;-63
2022/04/28 04:38:52;;;;;;;26.60;21.80;;;;;;;10.25;60.27;96147.69;5010263;28;20034;-63
2022/04/28 04:41:17;;;;;;;27.92;22.50;;;;;;;10.47;59.28;96160.56;5010096;28;20026;-63
2022/04/28 04:43:43;;;;;;;30.70;23.67;;;;;;;10.71;59.88;96173.94;5010662;28;20542;-66
2022/04/28 04:46:08;;;;;;;27.17;22.55;;;;;;;10.73;59.53;96147.84;5010425;28;20025;-64
2022/04/28 04:48:34;;;;;;;23.83;20.67;;;;;;;10.93;59.62;96163.63;5005903;28;20149;-66
2022/04/28 04:51:00;;;;;;;25.98;21.85;;;;;;;11.15;59.12;96170.34;5008777;28;20033;-63
2022/04/28 04:53:25;;;;;;;22.40;20.00;;;;;;;11.02;59.56;96134.53;5008539;28;20069;-64
2022/04/28 04:55:51;;;;;;;21.23;18.88;;;;;;;11.35;58.65;96164.81;5008918;28;20029;-63
2022/04/28 04:58:16;;;;;;;27.45;19.42;;;;;;;11.39;57.75;96141.84;5017234;28;20029;-62
2022/04/28 05:00:42;;;;;;;26.17;20.60;;;;;;;11.50;57.54;96177.16;5024580;28;20036;-63
2022/04/28 05:03:07;;;;;;;26.55;21.55;;;;;;;11.51;57.64;96159.31;5025672;28;20021;-63
2022/04/28 05:05:33;;;;;;;31.75;22.17;;;;;;;11.54;57.61;96135.56;5009233;28;20439;-63
2022/04/28 05:07:58;;;;;;;26.63;21.10;;;;;;;12.03;56.72;96179.75;5010031;28;20072;-61
2022/04/28 05:10:24;;;;;;;22.83;20.30;;;;;;;11.78;55.29;96151.53;5009422;28;20034;-63
2022/04/28 05:12:49;;;;;;;26.40;21.73;;;;;;;12.23;55.40;96170.66;5009850;28;20394;-61
2022/04/28 05:15:15;;;;;;;23.38;20.85;;;;;;;12.51;55.37;96197.47;5010145;28;20033;-62
2022/04/28 05:17:40;;;;;;;24.25;20.52;;;;;;;12.56;55.37;96181.41;5008811;28;20474;-63
2022/04/28 05:20:07;;;;;;;27.60;23.63;;;;;;;12.49;54.76;96177.22;5009793;28;20018;-60
2022/04/28 05:22:33;;;;;;;28.20;22.08;;;;;;;12.54;54.63;96178.22;5007070;28;20105;-61
2022/04/28 05:24:59;;;;;;;27.60;22.55;;;;;;;12.62;54.83;96189.03;5009806;28;20030;-61
2022/04/28 05:27:24;;;;;;;33.47;24.92;;;;;;;12.62;54.88;96186.34;5009128;28;20564;-62
2022/04/28 05:29:50;;;;;;;28.08;23.15;;;;;;;12.61;55.06;96186.66;5009132;28;20026;-62
2022/04/28 05:32:15;;;;;;;26.42;22.95;;;;;;;12.75;54.56;96192.84;5009649;28;20022;-61
2022/04/28 05:34:41;;;;;;;26.77;23.58;;;;;;;12.90;54.61;96202.47;5008760;28;20026;-61
2022/04/28 05:37:06;;;;;;;29.20;22.63;;;;;;;12.96;54.58;96215.47;5009717;28;20121;-62
2022/04/28 05:39:32;;;;;;;26.58;23.30;;;;;;;13.01;54.46;96201.22;5009271;28;20101;-62
2022/04/28 05:41:57;;;;;;;28.05;24.17;;;;;;;12.77;54.24;96152.50;5008863;28;20029;-61
2022/04/28 05:47:07;;;;;;;27.08;24.10;;;;;;;13.22;54.17;96215.84;5003110;28;20492;-62
2022/04/28 05:49:33;;;;;;;24.73;22.33;;;;;;;13.25;54.04;96217.13;5021032;28;20100;-61
2022/04/28 05:51:59;;;;;;;28.33;23.00;;;;;;;13.27;53.83;96221.09;5017025;28;20474;-63
2022/04/28 05:54:25;;;;;;;26.90;23.27;;;;;;;13.20;53.87;96191.25;5025722;28;20041;-62
2022/04/28 05:56:51;;;;;;;25.65;21.88;;;;;;;12.79;54.11;96199.16;5025783;28;20037;-62
2022/04/28 05:59:17;;;;;;;25.30;22.67;;;;;;;13.31;53.83;96218.63;5020738;28;20033;-62
2022/04/28 06:01:43;;;;;;;25.05;21.67;;;;;;;13.31;53.56;96218.63;5043029;28;20432;-62
2022/04/28 06:04:08;;;;;;;25.40;22.88;;;;;;;12.98;53.91;96178.56;5021947;28;20479;-63
2022/04/28 06:06:34;;;;;;;26.77;22.13;;;;;;;13.33;53.31;96200.41;5012034;28;20030;-62
2022/04/28 06:09:00;;;;;;;23.45;21.15;;;;;;;13.68;53.38;96243.63;5011082;28;20431;-64
2022/04/28 06:11:26;;;;;;;24.70;21.10;;;;;;;13.70;53.11;96236.88;5012885;28;20533;-64
2022/04/28 06:13:51;;;;;;;21.77;19.50;;;;;;;13.53;52.89;96209.94;5012430;28;20061;-63
2022/04/28 06:16:17;;;;;;;21.88;19.63;;;;;;;13.86;52.64;96241.94;5013282;28;20024;-62
2022/04/28 06:18:42;;;;;;;19.95;17.92;;;;;;;13.85;52.14;96227.78;5013083;28;20061;-62
2022/04/28 06:21:08;;;;;;;19.75;17.85;;;;;;;13.41;52.54;96214.97;5012887;28;20108;-62
2022/04/28 06:23:34;;;;;;;18.98;17.17;;;;;;;13.25;52.44;96222.47;5013179;28;20026;-64
2022/04/28 06:26:00;;;;;;;20.55;18.45;;;;;;;13.90;52.17;96245.59;5013046;28;20049;-63
2022/04/28 06:28:26;;;;;;;18.58;16.92;;;;;;;13.82;51.67;96249.78;5011875;28;20038;-63
2022/04/28 06:30:51;;;;;;;19.17;17.33;;;;;;;14.05;51.52;96240.75;5018897;28;20371;-64
2022/04/28 06:33:18;;;;;;;18.35;16.85;;;;;;;14.21;50.81;96248.44;5027091;28;20470;-63
2022/04/28 06:35:44;;;;;;;16.85;15.23;;;;;;;13.92;50.49;96257.59;5032678;28;20112;-61
2022/04/28 06:38:09;;;;;;;18.38;16.48;;;;;;;14.30;49.76;96238.63;5028000;28;20570;-61
2022/04/28 06:40:35;;;;;;;16.80;15.40;;;;;;;14.47;50.04;96229.97;5027955;28;20032;-61
2022/04/28 06:43:01;;;;;;;17.48;15.68;;;;;;;14.63;49.51;96254.53;5029004;28;20482;-63
2022/04/28 06:45:26;;;;;;;19.15;17.42;;;;;;;14.74;49.04;96262.06;5023468;28;20030;-64
2022/04/28 06:47:51;;;;;;;18.15;16.20;;;;;;;14.92;49.04;96256.81;5032590;28;20108;-64
2022/04/28 06:50:17;;;;;;;17.08;15.48;;;;;;;14.46;49.15;96255.94;5012940;28;20036;-63
2022/04/28 06:52:42;;;;;;;17.65;16.05;;;;;;;14.97;48.91;96254.81;5012019;28;20419;-63
2022/04/28 06:55:10;;;;;;;15.60;13.95;;;;;;;15.06;48.36;96271.75;5011931;28;20026;-63
2022/04/28 06:57:36;;;;;;;17.02;15.45;;;;;;;14.99;48.28;96270.56;5010836;28;20065;-64
2022/04/28 07:00:04;;;;;;;15.27;13.88;;;;;;;15.06;48.33;96246.84;5011103;28;20034;-64
2022/04/28 07:02:30;;;;;;;17.70;16.17;;;;;;;15.44;48.13;96270.56;5011727;28;20029;-64
2022/04/28 07:04:56;;;;;;;18.20;16.60;;;;;;;15.43;48.08;96250.22;5010953;28;20029;-64
2022/04/28 07:07:21;;;;;;;14.65;13.15;;;;;;;14.87;47.71;96180.06;5010157;28;20117;-64
2022/04/28 07:09:46;;;;;;;16.20;14.65;;;;;;;15.21;46.91;96254.50;5010657;28;20026;-63
2022/04/28 07:12:12;;;;;;;13.93;12.70;;;;;;;15.62;47.11;96263.41;5011741;28;20520;-64
2022/04/28 07:14:38;;;;;;;13.77;12.38;;;;;;;15.37;45.71;96268.31;5010862;28;20084;-63
2022/04/28 07:17:04;;;;;;;13.73;12.13;;;;;;;15.51;45.17;96258.31;5012334;28;20036;-63
2022/04/28 07:19:29;;;;;;;13.70;12.35;;;;;;;15.66;45.27;96250.97;5011563;28;20057;-63
2022/04/28 07:21:55;;;;;;;13.38;11.75;;;;;;;15.31;45.13;96253.47;5011608;28;20026;-63
2022/04/28 07:24:20;;;;;;;13.32;11.50;;;;;;;15.69;45.37;96280.66;5011757;28;20025;-63
2022/04/28 07:26:46;;;;;;;11.70;10.57;;;;;;;15.88;44.94;96250.94;5011620;28;20113;-63
2022/04/28 07:29:11;;;;;;;12.88;11.57;;;;;;;15.76;44.28;96262.22;5011170;28;20033;-63
2022/04/28 07:31:36;;;;;;;11.77;10.77;;;;;;;15.76;44.43;96221.19;5011055;28;20117;-62
2022/04/28 07:34:03;;;;;;;13.63;10.48;;;;;;;16.14;43.83;96264.44;5011537;28;20463;-62
2022/04/28 07:36:28;;;;;;;11.95;10.85;;;;;;;15.68;44.58;96254.16;5010212;28;20113;-62
2022/04/28 07:38:54;;;;;;;12.25;11.15;;;;;;;16.36;43.46;96277.75;5011636;28;20164;-62
2022/04/28 07:41:20;;;;;;;12.52;10.80;;;;;;;16.39;43.06;96254.84;5011198;28;20029;-62
2022/04/28 07:43:45;;;;;;;11.10;10.00;;;;;;;16.38;42.35;96280.13;5010654;28;20025;-63
2022/04/28 07:46:10;;;;;;;9.10;8.38;;;;;;;15.36;43.11;96271.31;5011336;28;20041;-64
2022/04/28 07:48:36;;;;;;;10.30;8.70;;;;;;;16.28;42.42;96275.06;5009654;28;20407;-63
2022/04/28 07:51:03;;;;;;;9.65;8.85;;;;;;;16.48;41.45;96268.28;5010869;28;20030;-65
2022/04/28 07:53:28;;;;;;;10.25;7.18;;;;;;;16.42;40.89;96277.59;5011298;28;20467;-64
2022/04/28 07:56:15;;;;;;;8.73;8.00;;;;;;;15.84;42.28;96255.31;5026523;28;20029;-64
2022/04/28 07:58:42;;;;;;;8.18;7.47;;;;;;;15.98;41.83;96285.53;5009084;28;20084;-64
2022/04/28 08:01:08;;;;;;;8.77;8.07;;;;;;;16.21;41.56;96285.44;5010497;28;20028;-64
2022/04/28 08:03:34;;;;;;;8.13;7.30;;;;;;;15.65;42.07;96260.13;5011148;28;20100;-65
2022/04/28 08:05:59;;;;;;;8.65;7.85;;;;;;;15.95;42.34;96290.72;5011200;28;20030;-64
2022/04/28 08:08:25;;;;;;;8.90;7.85;;;;;;;15.51;42.96;96265.56;5011049;28;20398;-65
2022/04/28 08:10:50;;;;;;;7.80;7.20;;;;;;;15.28;42.90;96264.78;5010618;28;20474;-65
2022/04/28 08:13:16;;;;;;;7.60;7.00;;;;;;;16.45;41.84;96290.41;5011073;28;20079;-65
2022/04/28 08:15:42;;;;;;;7.75;6.72;;;;;;;16.31;41.49;96290.53;5008719;28;20117;-65
2022/04/28 08:18:08;;;;;;;7.32;6.63;;;;;;;16.47;41.21;96272.84;5010725;28;20109;-65
2022/04/28 08:20:33;;;;;;;12.35;6.47;;;;;;;16.82;40.20;96257.59;5010497;28;20026;-65
2022/04/28 08:22:59;;;;;;;7.00;6.50;;;;;;;16.76;39.79;96274.19;5009169;28;20094;-65
2022/04/28 08:25:24;;;;;;;6.30;5.80;;;;;;;15.99;39.95;96222.69;5009548;28;20026;-64
2022/04/28 08:27:50;;;;;;;7.82;6.57;;;;;;;16.53;39.67;96277.00;5009804;28;20034;-65
2022/04/28 08:30:15;;;;;;;6.53;5.85;;;;;;;16.89;39.98;96257.94;5009674;28;20040;-65
2022/04/28 08:32:40;;;;;;;7.70;7.00;;;;;;;16.67;39.68;96292.97;5010758;28;20029;-64
2022/04/28 08:35:07;;;;;;;7.55;6.85;;;;;;;15.98;40.65;96282.06;5010484;28;20057;-64
2022/04/28 08:37:32;;;;;;;7.15;6.38;;;;;;;16.50;38.61;96298.31;5010699;28;20030;-65
2022/04/28 08:39:58;;;;;;;6.70;5.95;;;;;;;15.86;40.13;96282.63;5010227;28;20056;-64
2022/04/28 08:42:26;;;;;;;9.25;5.78;;;;;;;16.99;38.73;96305.16;5008975;28;20069;-64
2022/04/28 08:44:54;;;;;;;6.32;5.82;;;;;;;16.88;38.35;96309.28;5009972;28;20030;-64
2022/04/28 08:47:20;;;;;;;5.97;5.32;;;;;;;16.79;38.00;96268.22;5010472;28;20108;-65
2022/04/28 08:49:49;;;;;;;9.68;5.63;;;;;;;17.17;38.13;96302.50;5010191;28;20510;-63
2022/04/28 08:52:16;;;;;;;6.18;5.68;;;;;;;16.62;38.05;96277.00;5009621;28;20414;-63
2022/04/28 08:54:44;;;;;;;9.82;5.85;;;;;;;17.14;37.66;96267.06;5010315;28;20052;-64
2022/04/28 08:57:09;;;;;;;7.32;6.72;;;;;;;17.38;37.19;96280.00;5010385;28;20459;-63
2022/04/28 08:59:34;;;;;;;6.35;5.70;;;;;;;17.31;35.85;96290.47;5009970;28;20038;-63
2022/04/28 09:02:00;;;;;;;9.32;6.03;;;;;;;17.76;36.32;96300.03;5009966;28;20026;-63
2022/04/28 09:04:27;;;;;;;7.13;5.68;;;;;;;17.62;35.36;96302.91;5009765;28;20195;-61
2022/04/28 09:06:55;;;;;;;5.20;4.60;;;;;;;17.73;35.04;96300.69;5010165;28;20026;-64
2022/04/28 09:09:21;;;;;;;7.82;6.18;;;;;;;16.95;35.86;96312.31;5010078;28;20133;-63
2022/04/28 09:11:47;;;;;;;6.43;5.93;;;;;;;16.81;35.92;96315.13;5009741;28;20029;-64
2022/04/28 09:14:20;;;;;;;6.65;6.05;;;;;;;17.38;35.55;96312.28;5009974;28;20026;-64
2022/04/28 09:17:02;;;;;;;6.93;5.53;;;;;;;17.73;35.37;96290.72;5008772;28;20430;-64
2022/04/28 09:19:37;;;;;;;5.53;5.03;;;;;;;18.46;35.25;96306.72;5009519;28;20022;-63
2022/04/28 09:22:12;;;;;;;5.65;5.13;;;;;;;19.47;33.12;96290.44;5016953;28;20033;-63
2022/04/28 09:24:44;;;;;;;5.40;5.00;;;;;;;18.58;31.43;96279.06;5029813;28;20045;-62
2022/04/28 09:27:10;;;;;;;;;;;;;;;17.79;31.67;96310.16;5028784;28;20116;-62
2022/04/28 09:29:39;;;;;;;5.07;4.57;;;;;;;18.44;30.86;96308.94;5028440;28;20397;-62
2022/04/28 09:32:13;;;;;;;4.43;3.80;;;;;;;18.31;28.80;96291.09;5029525;28;20037;-64
2022/04/28 09:34:47;;;;;;;5.70;3.83;;;;;;;18.82;27.55;96283.84;5011313;28;20053;-63
2022/04/28 09:37:20;;;;;;;4.40;3.78;;;;;;;18.85;26.46;96294.75;5017467;28;20059;-64
2022/04/28 09:42:39;;;;;;;5.27;4.07;;;;;;;18.31;28.25;96296.50;5014261;28;20086;-64
2022/04/28 09:45:06;;;;;;;5.32;4.93;;;;;;;18.80;28.60;96297.66;5013946;28;20037;-64
2022/04/28 09:47:32;;;;;;;5.68;5.10;;;;;;;18.94;27.64;96302.78;5012182;28;20030;-64
2022/04/28 09:49:58;;;;;;;10.30;4.47;;;;;;;18.52;27.74;96299.22;5012091;28;20029;-64
2022/04/28 09:52:26;;;;;;;4.30;3.90;;;;;;;17.70;28.64;96301.28;5020459;28;20042;-64
2022/04/28 09:54:53;;;;;;;4.50;3.80;;;;;;;18.01;28.58;96299.16;5033101;28;20026;-62
2022/04/28 09:57:21;;;;;;;4.38;3.65;;;;;;;18.30;29.23;96286.84;5033171;28;20517;-62
2022/04/28 09:59:53;;;;;;;4.13;3.78;;;;;;;18.72;28.04;96262.66;5017211;28;20034;-63
2022/04/28 10:02:21;;;;;;;3.58;3.28;;;;;;;19.20;27.71;96303.38;5012661;28;20478;-63
2022/04/28 10:04:47;;;;;;;4.95;4.18;;;;;;;18.52;27.69;96300.00;5011713;28;20102;-63
2022/04/28 10:07:14;;;;;;;4.85;4.45;;;;;;;19.30;28.05;96296.78;5013298;28;20034;-62
2022/04/28 10:09:41;;;;;;;4.57;4.05;;;;;;;20.45;27.12;96304.06;5012776;28;20030;-63
2022/04/28 10:12:08;;;;;;;4.75;4.22;;;;;;;21.32;26.65;96295.50;5012454;28;20478;-62
2022/04/28 10:14:40;;;;;;;5.35;4.82;;;;;;;21.50;26.00;96296.00;5013199;28;20046;-63
2022/04/28 10:17:11;;;;;;;5.43;5.03;;;;;;;21.19;26.61;96285.81;5013200;28;20041;-63
2022/04/28 10:19:42;;;;;;;5.07;4.60;;;;;;;20.69;27.25;96293.28;5012183;28;20044;-63
2022/04/28 10:22:10;;;;;;;5.85;5.40;;;;;;;19.70;28.95;96294.31;5015779;28;20030;-63
2022/04/28 10:33:04;;;;;;;6.57;6.05;;;;;;;18.94;30.91;96292.00;5012736;28;20399;-63
2022/04/28 10:35:37;;;;;;;7.30;6.60;;;;;;;18.40;31.68;96295.34;5012329;28;20026;-63
2022/04/28 10:38:23;;;;;;;6.88;6.38;;;;;;;18.63;31.44;96293.16;5022496;28;20021;-63
2022/04/28 10:41:24;;;;;;;7.20;6.60;;;;;;;19.22;30.25;96306.50;5030663;28;20018;-63
2022/04/28 10:43:51;;;;;;;9.70;6.68;;;;;;;19.77;29.21;96291.09;5032056;28;20040;-63
2022/04/28 10:46:22;;;;;;;6.68;6.18;;;;;;;19.90;28.51;96308.88;5032148;28;20053;-62
2022/04/28 10:48:52;;;;;;;6.03;5.53;;;;;;;20.32;28.07;96294.38;5032261;28;20033;-62
2022/04/28 10:51:20;;;;;;;6.43;5.78;;;;;;;20.52;28.13;96304.31;5012827;28;20273;-63
2022/04/28 10:54:01;;;;;;;6.57;6.00;;;;;;;21.59;27.31;96309.34;5027662;28;20087;-62
2022/04/28 10:56:53;;;;;;;6.75;6.13;;;;;;;21.46;26.67;96289.69;5032548;28;20104;-64
2022/04/28 10:59:34;;;;;;;8.18;6.05;;;;;;;21.38;25.92;96310.34;5026462;28;20037;-61
2022/04/28 11:02:13;;;;;;;6.55;5.60;;;;;;;20.15;27.59;96309.69;5032172;28;20106;-64
2022/04/28 11:04:40;;;;;;;6.40;5.68;;;;;;;19.71;28.27;96301.31;5017149;28;20052;-64
2022/04/28 11:07:09;;;;;;;6.68;6.18;;;;;;;19.46;28.23;96305.03;5011285;28;20544;-65
2022/04/28 11:09:35;;;;;;;5.97;5.47;;;;;;;18.98;29.18;96321.78;5018310;28;20155;-64
2022/04/28 11:12:18;;;;;;;5.70;5.25;;;;;;;18.62;29.12;96304.22;5011750;28;20084;-64
2022/04/28 11:14:59;;;;;;;5.95;5.35;;;;;;;19.83;28.52;96322.16;5012343;28;20068;-63
2022/04/28 11:17:28;;;;;;;6.57;5.05;;;;;;;20.57;26.58;96309.50;5011963;28;20026;-63
2022/04/28 11:19:54;;;;;;;5.53;5.03;;;;;;;20.38;27.36;96311.97;5012411;28;20045;-63
2022/04/28 11:22:20;;;;;;;5.45;5.05;;;;;;;20.13;27.32;96314.66;5012794;28;20026;-63
2022/04/28 11:24:47;;;;;;;5.53;5.13;;;;;;;18.86;28.66;96247.81;5031922;28;20021;-63
2022/04/28 11:27:20;;;;;;;5.40;5.00;;;;;;;19.55;27.58;96313.03;5030174;28;20099;-63
2022/04/28 11:29:46;;;;;;;5.05;4.55;;;;;;;19.68;26.92;96320.09;5018212;28;20264;-63
2022/04/28 11:32:15;;;;;;;4.88;4.47;;;;;;;19.43;26.80;96301.09;5011126;28;20112;-63
2022/04/28 11:34:42;;;;;;;4.63;4.22;;;;;;;19.70;26.58;96298.94;5012004;28;20470;-63
2022/04/28 11:37:22;;;;;;;4.57;4.18;;;;;;;19.84;25.89;96309.44;5010543;28;20517;-63
2022/04/28 11:39:49;;;;;;;5.88;4.03;;;;;;;19.39;26.47;96304.78;4992278;28;20026;-63
2022/04/28 11:42:16;;;;;;;5.57;3.97;;;;;;;19.02;26.72;96310.00;4993431;28;20110;-63
2022/04/28 11:44:46;;;;;;;8.15;4.78;;;;;;;18.25;28.10;96284.31;5010400;28;20487;-63
2022/04/28 11:47:12;;;;;;;6.47;3.78;;;;;;;18.91;26.95;96290.75;5011566;28;20022;-63
2022/04/28 11:49:40;;;;;;;5.47;4.20;;;;;;;18.31;28.43;96312.66;5011634;28;20478;-63